createdAt,value
2024-01-11T00:00:36.997Z,77.05
2024-01-11T00:03:03.902Z,78.02
2024-01-11T00:05:30.793Z,77.31
2024-01-11T00:07:57.571Z,77.36
2024-01-11T00:10:24.291Z,77.50
2024-01-11T00:12:51.148Z,78.31
2024-01-11T00:15:18.305Z,78.44
2024-01-11T00:17:45.142Z,78.67
2024-01-11T00:20:12.298Z,78.39
2024-01-11T00:22:38.975Z,78.28
2024-01-11T00:25:06.214Z,78.41
2024-01-11T00:27:32.901Z,78.63
2024-01-11T00:29:59.877Z,78.81
2024-01-11T00:32:29.992Z,78.84
2024-01-11T00:34:56.788Z,79.03
2024-01-11T00:37:23.688Z,78.58
2024-01-11T00:39:52.214Z,78.48
2024-01-11T00:42:18.790Z,79.01
2024-01-11T00:44:46.602Z,78.78
2024-01-11T00:47:13.375Z,78.66
2024-01-11T00:49:40.024Z,79.18
2024-01-11T00:52:07.170Z,79.15
2024-01-11T00:54:33.824Z,79.23
2024-01-11T00:57:00.401Z,79.07
2024-01-11T00:59:27.089Z,79.22
2024-01-11T01:01:53.754Z,78.93
2024-01-11T01:04:20.413Z,78.97
2024-01-11T01:06:47.088Z,78.40
2024-01-11T01:09:14.953Z,79.18
2024-01-11T01:11:41.505Z,77.79
2024-01-11T01:14:08.187Z,77.61
2024-01-11T01:16:34.876Z,77.59
2024-01-11T01:19:01.729Z,78.59
2024-01-11T01:21:29.409Z,77.92
2024-01-11T01:23:56.136Z,77.87
2024-01-11T01:26:22.829Z,78.14
2024-01-11T01:28:49.449Z,78.97
2024-01-11T01:31:16.141Z,78.05
2024-01-11T01:33:43.027Z,78.34
2024-01-11T01:36:11.589Z,78.29
2024-01-11T01:38:38.449Z,78.74
2024-01-11T01:41:05.188Z,78.42
2024-01-11T01:43:31.820Z,78.61
2024-01-11T01:45:59.667Z,78.74
2024-01-11T01:48:26.647Z,78.31
2024-01-11T01:50:53.569Z,78.64
2024-01-11T01:53:24.178Z,78.15
2024-01-11T01:55:53.727Z,78.93
2024-01-11T01:58:21.783Z,77.76
2024-01-11T02:00:52.263Z,77.61
2024-01-11T02:03:19.470Z,78.03
2024-01-11T02:05:46.586Z,78.47
2024-01-11T02:08:18.759Z,78.87
2024-01-11T02:10:47.198Z,79.57
2024-01-11T02:13:16.569Z,78.73
2024-01-11T02:15:44.207Z,78.52
2024-01-11T02:18:11.543Z,78.97
2024-01-11T02:20:38.256Z,78.29
2024-01-11T02:23:16.155Z,78.38
2024-01-11T02:25:42.765Z,78.27
2024-01-11T02:28:09.850Z,77.93
2024-01-11T02:30:37.631Z,78.20
2024-01-11T02:33:05.706Z,77.85
2024-01-11T02:35:33.035Z,78.15
2024-01-11T02:38:00.991Z,78.04
2024-01-11T02:40:27.732Z,78.68
2024-01-11T02:42:54.542Z,78.40
2024-01-11T02:45:21.384Z,79.67
2024-01-11T02:47:48.033Z,79.24
2024-01-11T02:50:14.793Z,78.37
2024-01-11T02:52:41.413Z,78.33
2024-01-11T02:55:09.692Z,78.35
2024-01-11T02:57:36.268Z,78.51
2024-01-11T03:00:02.907Z,77.94
2024-01-11T03:02:29.869Z,78.30
2024-01-11T03:04:56.518Z,78.13
2024-01-11T03:07:23.356Z,78.74
2024-01-11T03:09:50.054Z,78.22
2024-01-11T03:12:16.595Z,78.33
2024-01-11T03:14:43.286Z,78.17
2024-01-11T03:17:10.274Z,78.41
2024-01-11T03:19:42.173Z,78.94
2024-01-11T03:22:09.144Z,78.59
2024-01-11T03:24:40.382Z,78.26
2024-01-11T03:27:07.289Z,78.40
2024-01-11T03:29:34.128Z,78.34
2024-01-11T03:32:00.970Z,78.75
2024-01-11T03:34:27.712Z,78.52
2024-01-11T03:36:54.358Z,78.42
2024-01-11T03:39:20.962Z,78.49
2024-01-11T03:41:47.886Z,78.38
2024-01-11T03:44:14.909Z,78.39
2024-01-11T03:46:41.765Z,78.57
2024-01-11T03:49:11.253Z,79.03
2024-01-11T03:51:38.002Z,78.66
2024-01-11T03:54:07.553Z,79.02
2024-01-11T03:56:35.535Z,79.04
2024-01-11T03:59:02.256Z,78.79
2024-01-11T04:01:29.762Z,78.67
2024-01-11T04:03:56.564Z,78.83
2024-01-11T04:06:25.350Z,79.17
2024-01-11T04:08:52.382Z,78.66
2024-01-11T04:11:20.140Z,78.45
2024-01-11T04:13:46.882Z,79.85
2024-01-11T04:16:13.668Z,78.89
2024-01-11T04:18:40.442Z,79.32
2024-01-11T04:21:07.103Z,79.54
2024-01-11T04:23:33.716Z,78.32
2024-01-11T04:26:00.552Z,79.01
2024-01-11T04:28:27.199Z,79.16
2024-01-11T04:30:54.655Z,78.95
2024-01-11T04:33:22.995Z,79.97
2024-01-11T04:35:49.940Z,79.46
2024-01-11T04:38:16.713Z,78.96
2024-01-11T04:40:43.522Z,80.12
2024-01-11T04:43:10.353Z,79.28
2024-01-11T04:45:37.057Z,79.21
2024-01-11T04:48:04.121Z,79.33
2024-01-11T04:50:31.015Z,79.82
2024-01-11T04:52:57.886Z,80.15
2024-01-11T04:55:24.539Z,79.36
2024-01-11T04:57:51.207Z,79.83
2024-01-11T05:00:18.240Z,79.93
2024-01-11T05:02:44.955Z,79.98
2024-01-11T05:05:11.858Z,79.48
2024-01-11T05:07:39.264Z,80.20
2024-01-11T05:10:06.733Z,80.10
2024-01-11T05:12:33.506Z,80.30
2024-01-11T05:15:00.249Z,81.01
2024-01-11T05:17:28.100Z,80.71
2024-01-11T05:19:55.154Z,81.02
2024-01-11T05:22:23.267Z,80.59
2024-01-11T05:24:50.016Z,80.47
2024-01-11T05:27:17.019Z,81.27
2024-01-11T05:29:43.878Z,81.07
2024-01-11T05:32:11.249Z,81.35
2024-01-11T05:34:38.196Z,81.41
2024-01-11T05:37:05.121Z,81.95
2024-01-11T05:39:32.988Z,81.53
2024-01-11T05:41:59.642Z,81.97
2024-01-11T05:44:26.408Z,81.73
2024-01-11T05:46:53.045Z,82.03
2024-01-11T05:49:20.068Z,82.09
2024-01-11T05:51:46.692Z,82.30
2024-01-11T05:54:13.378Z,81.77
2024-01-11T05:56:40.138Z,81.92
2024-01-11T05:59:07.094Z,82.38
2024-01-11T06:01:33.840Z,82.27
2024-01-11T06:04:00.598Z,82.36
2024-01-11T06:06:27.344Z,82.32
2024-01-11T06:08:54.107Z,82.41
2024-01-11T06:11:20.891Z,82.62
2024-01-11T06:13:48.440Z,82.46
2024-01-11T06:16:15.241Z,81.88
2024-01-11T06:18:42.175Z,81.73
2024-01-11T06:21:08.921Z,81.89
2024-01-11T06:23:35.584Z,81.60
2024-01-11T06:26:02.242Z,82.08
2024-01-11T06:28:29.377Z,82.29
2024-01-11T06:30:56.093Z,81.91
2024-01-11T06:33:22.950Z,81.90
2024-01-11T06:35:50.970Z,82.26
2024-01-11T06:38:17.845Z,81.77
2024-01-11T06:40:44.817Z,81.99
2024-01-11T06:43:11.434Z,82.13
2024-01-11T06:45:38.143Z,81.81
2024-01-11T06:48:05.303Z,81.07
2024-01-11T06:50:32.000Z,81.22
2024-01-11T06:52:58.913Z,81.16
2024-01-11T06:55:25.543Z,81.31
2024-01-11T06:57:52.130Z,80.63
2024-01-11T07:00:19.075Z,80.41
2024-01-11T07:02:45.982Z,80.39
2024-01-11T07:05:13.773Z,80.61
2024-01-11T07:07:40.566Z,80.51
2024-01-11T07:10:07.603Z,80.44
2024-01-11T07:12:34.421Z,80.57
2024-01-11T07:15:01.140Z,80.38
2024-01-11T07:17:28.054Z,80.33
2024-01-11T07:19:54.781Z,80.83
2024-01-11T07:22:21.581Z,81.28
2024-01-11T07:24:48.220Z,80.88
2024-01-11T07:27:15.741Z,81.17
2024-01-11T07:29:42.721Z,81.01
2024-01-11T07:32:09.770Z,81.15
2024-01-11T07:34:36.557Z,81.22
2024-01-11T07:37:03.458Z,81.75
2024-01-11T07:39:32.230Z,81.41
2024-01-11T07:41:58.922Z,81.98
2024-01-11T07:44:25.622Z,81.44
2024-01-11T07:46:54.547Z,82.02
2024-01-11T07:49:22.883Z,81.56
2024-01-11T07:51:50.462Z,81.82
2024-01-11T07:54:17.179Z,82.20
2024-01-11T07:56:44.222Z,82.16
2024-01-11T07:59:16.380Z,81.65
2024-01-11T08:01:43.312Z,81.98
2024-01-11T08:04:10.418Z,81.81
2024-01-11T08:06:37.107Z,81.32
2024-01-11T08:09:06.211Z,81.64
2024-01-11T08:11:36.622Z,81.19
2024-01-11T08:14:07.357Z,81.36
2024-01-11T08:16:34.415Z,81.74
2024-01-11T08:19:02.439Z,82.92
2024-01-11T08:21:29.976Z,81.91
2024-01-11T08:24:00.609Z,81.67
2024-01-11T08:26:31.623Z,82.28
2024-01-11T08:29:00.049Z,83.10
2024-01-11T08:31:28.055Z,81.63
2024-01-11T08:33:56.239Z,81.40
2024-01-11T08:36:23.305Z,81.36
2024-01-11T08:38:51.493Z,81.62
2024-01-11T08:41:18.270Z,81.11
2024-01-11T08:43:45.003Z,81.02
2024-01-11T08:46:11.710Z,80.79
2024-01-11T08:48:38.719Z,80.59
2024-01-11T08:51:07.671Z,80.90
2024-01-11T08:53:34.448Z,81.20
2024-01-11T08:56:01.342Z,80.65
2024-01-11T08:58:28.638Z,81.28
2024-01-11T09:00:55.462Z,81.67
2024-01-11T09:03:22.474Z,81.03
2024-01-11T09:05:49.518Z,80.81
2024-01-11T09:08:16.338Z,80.72
2024-01-11T09:10:43.266Z,80.58
2024-01-11T09:13:11.706Z,80.46
2024-01-11T09:15:39.613Z,80.35
2024-01-11T09:18:06.633Z,80.65
2024-01-11T09:20:35.748Z,80.58
2024-01-11T09:23:05.318Z,81.08
2024-01-11T09:25:32.237Z,82.99
2024-01-11T09:27:58.951Z,83.04
2024-01-11T09:30:29.044Z,82.69
2024-01-11T09:32:57.165Z,81.34
2024-01-11T09:35:24.824Z,81.89
2024-01-11T09:37:52.432Z,82.10
2024-01-11T09:40:20.203Z,83.50
2024-01-11T09:42:47.027Z,84.08
2024-01-11T09:45:17.315Z,83.48
2024-01-11T09:47:47.475Z,83.53
2024-01-11T09:50:19.585Z,83.14
2024-01-11T09:52:51.223Z,83.31
2024-01-11T09:55:19.032Z,83.89
2024-01-11T09:57:47.458Z,84.96
2024-01-11T10:00:24.045Z,84.35
2024-01-11T10:02:51.176Z,85.06
2024-01-11T10:05:19.253Z,84.02
2024-01-11T10:07:47.220Z,84.52
2024-01-11T10:10:16.799Z,83.22
2024-01-11T10:12:44.226Z,84.09
2024-01-11T10:15:12.087Z,83.99
2024-01-11T10:17:44.213Z,84.42
2024-01-11T10:20:15.573Z,84.08
2024-01-11T10:22:43.268Z,83.64
2024-01-11T10:25:15.022Z,84.15
2024-01-11T10:27:45.916Z,82.32
2024-01-11T10:30:27.593Z,83.77
2024-01-11T10:32:55.206Z,83.06
2024-01-11T10:35:23.002Z,83.55
2024-01-11T10:37:55.156Z,83.43
2024-01-11T10:40:25.595Z,82.77
2024-01-11T10:42:53.554Z,82.92
2024-01-11T10:45:21.492Z,83.42
2024-01-11T10:48:03.706Z,81.77
2024-01-11T10:50:35.720Z,82.58
2024-01-11T10:53:20.905Z,82.97
2024-01-11T10:55:48.636Z,82.65
2024-01-11T10:58:17.707Z,82.57
2024-01-11T11:00:45.934Z,83.03
2024-01-11T11:03:13.948Z,82.45
2024-01-11T11:05:42.602Z,81.59
2024-01-11T11:08:11.036Z,82.71
2024-01-11T11:10:51.909Z,83.17
2024-01-11T11:13:19.450Z,84.18
2024-01-11T11:15:48.254Z,84.43
2024-01-11T11:18:15.319Z,84.64
2024-01-11T11:20:45.242Z,83.15
2024-01-11T11:23:15.146Z,82.81
2024-01-11T11:25:42.204Z,83.78
2024-01-11T11:28:09.208Z,84.08
2024-01-11T11:30:41.715Z,84.25
2024-01-11T11:33:25.905Z,83.45
2024-01-11T11:35:59.560Z,83.79
2024-01-11T11:38:31.169Z,82.79
2024-01-11T11:41:02.454Z,82.03
2024-01-11T11:43:30.675Z,82.07
2024-01-11T11:46:00.550Z,82.71
2024-01-11T11:48:33.047Z,83.15
2024-01-11T11:51:20.717Z,82.77
2024-01-11T11:53:52.430Z,82.19
2024-01-11T11:56:21.702Z,82.27
2024-01-11T11:58:49.713Z,82.27
2024-01-11T12:01:18.764Z,83.25
2024-01-11T12:03:53.411Z,82.55
2024-01-11T12:06:22.138Z,82.03
2024-01-11T12:08:50.113Z,82.63
2024-01-11T12:11:21.834Z,82.14
2024-01-11T12:13:50.310Z,81.32
2024-01-11T12:16:20.376Z,82.22
2024-01-11T12:18:47.207Z,81.66
2024-01-11T12:21:13.898Z,81.08
2024-01-11T12:23:43.375Z,81.18
2024-01-11T12:26:15.303Z,80.76
2024-01-11T12:28:43.997Z,80.66
2024-01-11T12:31:11.220Z,80.86
2024-01-11T12:33:40.286Z,79.89
2024-01-11T12:36:09.180Z,80.34
2024-01-11T12:38:36.901Z,79.98
2024-01-11T12:41:07.450Z,79.18
2024-01-11T12:43:36.093Z,79.39
2024-01-11T12:46:04.019Z,79.70
2024-01-11T12:48:32.998Z,79.78
2024-01-11T12:51:10.479Z,79.83
2024-01-11T12:53:47.192Z,79.08
2024-01-11T12:56:17.183Z,78.92
2024-01-11T12:58:44.192Z,78.69
2024-01-11T13:01:12.035Z,78.61
2024-01-11T13:03:40.839Z,78.83
2024-01-11T13:06:08.058Z,78.58
2024-01-11T13:08:37.839Z,78.38
2024-01-11T13:11:08.545Z,78.14
2024-01-11T13:13:36.240Z,77.67
2024-01-11T13:16:15.857Z,77.66
2024-01-11T13:18:44.250Z,77.21
2024-01-11T13:21:11.478Z,77.42
2024-01-11T13:23:39.624Z,77.42
2024-01-11T13:26:07.953Z,77.61
2024-01-11T13:28:35.103Z,77.84
2024-01-11T13:31:03.657Z,77.91
2024-01-11T13:33:30.537Z,77.89
2024-01-11T13:35:57.587Z,77.91
2024-01-11T13:38:27.100Z,77.76
2024-01-11T13:40:54.818Z,77.83
2024-01-11T13:43:21.596Z,77.86
2024-01-11T13:45:48.696Z,78.30
2024-01-11T13:48:15.592Z,78.03
2024-01-11T13:50:42.445Z,78.58
2024-01-11T13:53:09.316Z,78.54
2024-01-11T13:55:40.126Z,78.57
2024-01-11T13:58:07.947Z,78.24
2024-01-11T14:00:34.923Z,78.47
2024-01-11T14:03:02.923Z,78.63
2024-01-11T14:05:30.105Z,78.64
2024-01-11T14:08:00.563Z,78.56
2024-01-11T14:10:29.798Z,78.69
2024-01-11T14:12:56.800Z,78.62
2024-01-11T14:15:24.297Z,78.18
2024-01-11T14:17:53.249Z,78.46
2024-01-11T14:20:20.680Z,78.18
2024-01-11T14:22:54.286Z,78.16
2024-01-11T14:25:22.419Z,78.21
2024-01-11T14:27:50.350Z,77.91
2024-01-11T14:30:18.081Z,77.86
2024-01-11T14:32:47.155Z,78.02
2024-01-11T14:35:14.949Z,78.17
2024-01-11T14:37:44.186Z,78.10
2024-01-11T14:40:14.276Z,78.36
2024-01-11T14:42:42.626Z,78.04
2024-01-11T14:45:09.800Z,78.35
2024-01-11T14:47:37.167Z,78.46
2024-01-11T14:50:12.014Z,78.56
2024-01-11T14:52:40.245Z,78.47
2024-01-11T14:55:08.293Z,78.43
2024-01-11T14:57:38.317Z,78.50
2024-01-11T15:00:05.953Z,78.53
2024-01-11T15:02:36.591Z,78.15
2024-01-11T15:05:03.565Z,78.26
2024-01-11T15:07:30.349Z,78.49
2024-01-11T15:09:57.088Z,78.34
2024-01-11T15:12:23.802Z,78.37
2024-01-11T15:14:52.368Z,78.32
2024-01-11T15:17:19.902Z,78.28
2024-01-11T15:19:46.989Z,78.36
2024-01-11T15:22:15.048Z,78.56
2024-01-11T15:24:43.950Z,78.57
2024-01-11T15:27:11.680Z,78.61
2024-01-11T15:29:39.103Z,78.53
2024-01-11T15:32:06.380Z,78.59
2024-01-11T15:34:33.381Z,78.75
2024-01-11T15:37:03.837Z,78.72
2024-01-11T15:39:31.645Z,79.08
2024-01-11T15:42:05.057Z,78.97
2024-01-11T15:44:33.208Z,78.77
2024-01-11T15:47:02.910Z,78.56
2024-01-11T15:49:29.743Z,78.57
2024-01-11T15:51:57.407Z,78.92
2024-01-11T15:54:24.131Z,78.93
2024-01-11T15:56:52.100Z,78.73
2024-01-11T15:59:19.175Z,78.86
2024-01-11T16:01:56.232Z,78.98
2024-01-11T16:04:30.328Z,78.93
2024-01-11T16:06:57.514Z,79.06
2024-01-11T16:09:24.865Z,79.01
2024-01-11T16:11:52.065Z,78.78
2024-01-11T16:14:19.125Z,78.65
2024-01-11T16:16:46.886Z,78.90
2024-01-11T16:19:13.756Z,78.73
2024-01-11T16:21:40.687Z,78.79
2024-01-11T16:24:07.937Z,78.92
2024-01-11T16:26:34.765Z,78.54
2024-01-11T16:29:01.709Z,78.57
2024-01-11T16:31:30.254Z,78.65
2024-01-11T16:33:57.658Z,78.62
2024-01-11T16:36:25.006Z,78.35
2024-01-11T16:38:52.002Z,78.68
2024-01-11T16:41:19.057Z,78.44
2024-01-11T16:43:45.800Z,78.46
2024-01-11T16:46:23.504Z,78.19
2024-01-11T16:48:51.491Z,78.32
2024-01-11T16:51:18.385Z,77.97
2024-01-11T16:53:45.394Z,78.36
2024-01-11T16:56:12.375Z,77.81
2024-01-11T16:58:39.868Z,77.64
2024-01-11T17:01:06.691Z,77.35
2024-01-11T17:03:33.670Z,77.41
2024-01-11T17:06:00.580Z,77.65
2024-01-11T17:08:27.230Z,76.67
2024-01-11T17:10:53.825Z,76.87
2024-01-11T17:13:20.667Z,77.24
2024-01-11T17:15:47.537Z,76.90
2024-01-11T17:18:14.969Z,77.01
2024-01-11T17:20:43.370Z,76.58
2024-01-11T17:23:10.278Z,77.05
2024-01-11T17:25:37.091Z,77.02
2024-01-11T17:28:06.886Z,76.94
2024-01-11T17:30:33.524Z,76.71
2024-01-11T17:33:00.391Z,76.63
2024-01-11T17:35:27.142Z,76.68
2024-01-11T17:37:53.822Z,76.84
2024-01-11T17:40:20.483Z,77.05
2024-01-11T17:42:47.532Z,76.86
2024-01-11T17:45:14.398Z,76.98
2024-01-11T17:47:43.344Z,77.22
2024-01-11T17:50:10.346Z,77.03
2024-01-11T17:52:37.828Z,77.29
2024-01-11T17:55:06.009Z,77.54
2024-01-11T17:57:32.597Z,77.23
2024-01-11T18:00:00.780Z,77.72
2024-01-11T18:02:27.769Z,77.55
2024-01-11T18:04:54.473Z,77.53
2024-01-11T18:07:23.761Z,77.57
2024-01-11T18:09:53.704Z,77.21
2024-01-11T18:12:23.456Z,77.36
2024-01-11T18:14:52.965Z,77.25
2024-01-11T18:17:19.739Z,77.36
2024-01-11T18:19:46.444Z,77.11
2024-01-11T18:22:13.098Z,77.45
2024-01-11T18:24:43.034Z,77.17
2024-01-11T18:27:11.329Z,77.33
2024-01-11T18:29:38.090Z,77.19
2024-01-11T18:32:05.647Z,77.24
2024-01-11T18:34:35.715Z,77.32
2024-01-11T18:37:03.786Z,77.52
2024-01-11T18:39:30.477Z,77.24
2024-01-11T18:41:58.990Z,77.39
2024-01-11T18:44:27.069Z,77.42
2024-01-11T18:49:35.249Z,77.52
2024-01-11T18:52:01.934Z,77.61
2024-01-11T18:54:28.561Z,77.50
2024-01-11T18:56:55.569Z,77.59
2024-01-11T18:59:23.684Z,77.64
2024-01-11T19:01:58.296Z,77.75
2024-01-11T19:07:06.541Z,78.29
2024-01-11T19:09:34.759Z,78.17
2024-01-11T19:12:02.157Z,78.46
2024-01-11T19:14:29.690Z,78.66
2024-01-11T19:16:56.715Z,78.21
2024-01-11T19:19:23.801Z,78.49
2024-01-11T19:21:50.851Z,78.30
2024-01-11T19:24:17.647Z,78.17
2024-01-11T19:26:56.663Z,78.43
2024-01-11T19:29:25.141Z,78.44
2024-01-11T19:31:51.862Z,78.64
2024-01-11T19:34:18.514Z,78.85
2024-01-11T19:36:52.842Z,78.78
2024-01-11T19:39:21.114Z,78.77
2024-01-11T19:41:48.062Z,79.10
2024-01-11T19:44:15.078Z,78.95
2024-01-11T19:49:26.177Z,79.24
2024-01-11T19:51:53.124Z,78.78
2024-01-11T19:54:23.470Z,78.86
2024-01-11T19:56:53.118Z,78.68
2024-01-11T19:59:22.529Z,78.63
2024-01-11T20:01:50.863Z,78.77
2024-01-11T20:04:19.368Z,79.03
2024-01-11T20:06:48.810Z,78.97
2024-01-11T20:09:19.319Z,78.92
2024-01-11T20:11:47.646Z,78.72
2024-01-11T20:14:16.571Z,78.85
2024-01-11T20:16:44.181Z,78.65
2024-01-11T20:19:12.464Z,79.13
2024-01-11T20:21:39.322Z,78.52
2024-01-11T20:24:06.877Z,78.74
2024-01-11T20:26:38.975Z,78.76
2024-01-11T20:29:06.116Z,78.75
2024-01-11T20:31:32.876Z,79.54
2024-01-11T20:34:03.616Z,79.36
2024-01-11T20:36:31.620Z,79.18
2024-01-11T20:38:58.365Z,79.13
2024-01-11T20:44:06.147Z,79.07
2024-01-11T20:46:33.264Z,79.18
2024-01-11T20:49:01.053Z,79.95
2024-01-11T20:51:27.861Z,79.91
2024-01-11T20:53:57.761Z,80.23
2024-01-11T20:56:24.921Z,79.69
2024-01-11T20:58:51.976Z,79.91
2024-01-11T21:01:18.809Z,79.80
2024-01-11T21:03:45.564Z,79.10
2024-01-11T21:06:14.457Z,79.50
2024-01-11T21:08:41.393Z,80.36
2024-01-11T21:11:09.216Z,80.57
2024-01-11T21:13:36.423Z,80.58
2024-01-11T21:16:04.247Z,80.99
2024-01-11T21:18:31.302Z,81.83
2024-01-11T21:21:00.503Z,81.11
2024-01-11T21:23:27.276Z,81.10
2024-01-11T21:25:53.960Z,82.19
2024-01-11T21:28:20.683Z,82.01
2024-01-11T21:30:47.640Z,83.02
2024-01-11T21:33:16.438Z,82.59
2024-01-11T21:35:44.509Z,82.44
2024-01-11T21:38:11.596Z,82.45
2024-01-11T21:40:40.974Z,82.01
2024-01-11T21:43:08.820Z,82.58
2024-01-11T21:45:35.580Z,82.99
2024-01-11T21:48:02.277Z,82.74
2024-01-11T21:50:31.948Z,82.87
2024-01-11T21:53:06.668Z,82.23
2024-01-11T21:55:34.271Z,83.24
2024-01-11T21:58:00.884Z,82.84
2024-01-11T22:00:27.508Z,83.32
2024-01-11T22:02:54.252Z,83.69
2024-01-11T22:05:20.948Z,83.44
2024-01-11T22:07:47.706Z,83.81
2024-01-11T22:10:15.701Z,84.11
2024-01-11T22:12:42.338Z,82.06
2024-01-11T22:15:10.211Z,83.41
2024-01-11T22:17:37.042Z,82.21
2024-01-11T22:20:07.418Z,81.62
2024-01-11T22:22:34.434Z,82.33
2024-01-11T22:25:01.061Z,83.16
2024-01-11T22:27:28.861Z,82.11
2024-01-11T22:29:56.454Z,82.22
2024-01-11T22:32:23.304Z,82.15
2024-01-11T22:34:50.176Z,82.81
2024-01-11T22:37:16.971Z,82.41
2024-01-11T22:39:45.571Z,82.11
2024-01-11T22:42:12.470Z,82.63
2024-01-11T22:44:39.254Z,82.43
2024-01-11T22:47:06.483Z,82.26
2024-01-11T22:49:33.554Z,83.23
2024-01-11T22:52:04.342Z,83.12
2024-01-11T22:54:31.256Z,82.64
2024-01-11T22:56:58.274Z,82.12
2024-01-11T22:59:28.147Z,82.04
2024-01-11T23:02:00.006Z,82.18
2024-01-11T23:04:26.806Z,81.96
2024-01-11T23:06:53.552Z,83.06
2024-01-11T23:09:21.073Z,81.73
2024-01-11T23:11:50.030Z,82.92
2024-01-11T23:14:20.004Z,82.02
2024-01-11T23:16:46.932Z,82.25
2024-01-11T23:19:14.685Z,83.17
2024-01-11T23:21:43.263Z,82.76
2024-01-11T23:24:09.974Z,83.56
2024-01-11T23:26:37.165Z,82.69
2024-01-11T23:29:03.964Z,82.13
2024-01-11T23:31:30.937Z,83.68
2024-01-11T23:34:00.805Z,83.36
2024-01-11T23:36:27.876Z,82.73
2024-01-11T23:38:54.726Z,82.27
2024-01-11T23:41:21.872Z,82.76
2024-01-11T23:43:49.806Z,82.88
2024-01-11T23:46:16.512Z,83.32
2024-01-11T23:48:43.293Z,82.69
2024-01-11T23:51:10.368Z,82.43
2024-01-11T23:53:37.076Z,82.54
2024-01-11T23:56:04.959Z,82.48
2024-01-11T23:58:31.733Z,83.23
